Vremea acum in Zlatna - Romania

Vrei sa afli care e starea vremii acum in Arad - Romania? Dorim sa iti furnizam starea vremii pentru Arad - Romania. Starea vremii Arad - Romania pentru astazi.

Vremea acum in Zlatna

Temperatura: 19 °C

Este: Senin
Se simte ca: 19 °C
Innorat: 3 %
Precipitatii: 0 %
Presiune atmosferica: 1014 hPa
Umiditate: 56%
Vizibilitate: 10 km
Vantul bate din SSW cu 5 km/h

Evolutia vremii in Zlatna pe ore

Ora: 10:00
Senin
Temperatura: 19°C
Sansa de precipitatii: 0%
Ora Descriere Temp Se simte Precipitatii Umiditate Vant
00:00Senin11.5°10.7°0%72%WSW 8.6 KM/H
01:00Senin11°10.2°0%74%WSW 7.9 KM/H
02:00Senin10.7°9.9°0%74%WSW 7.6 KM/H
03:00Senin10.2°9.3°0%74%WSW 7.6 KM/H
04:00Patchy rain nearby9.8°9.1°80%77%WSW 6.5 KM/H
05:00Senin9.5°8.9°0%76%WSW 6.1 KM/H
06:00Senin9.3°8.8°0%76%WSW 5.4 KM/H
07:00Senin10°9.8°0%76%WSW 4.7 KM/H
08:00Senin14°14.5°0%69%SW 4 KM/H
09:00Senin16.8°16.8°0%62%SW 5 KM/H
10:00Senin19°19°0%56%SSW 5 KM/H
11:00Senin20.9°20.9°0%51%SSW 5.8 KM/H
12:00Senin22.6°24.5°0%46%SSW 6.1 KM/H
13:00Senin23.8°24.8°0%42%SW 6.8 KM/H
14:00Senin24.7°25.1°0%38%SW 6.5 KM/H
15:00Senin25.3°25.3°0%35%SSW 5.8 KM/H
16:00Senin25.4°25.3°0%34%S 5.8 KM/H
17:00Thundery outbreaks in nearby24.9°25.2°0%38%S 8.3 KM/H
18:00Thundery outbreaks in nearby20.8°20.8°0%54%SW 10.8 KM/H
19:0016.8°16.8°0%62%SSW 6.8 KM/H
20:00Patchy rain nearby16°16°70%66%SW 7.2 KM/H
21:00Senin14.1°14°0%69%WSW 7.2 KM/H
22:00Senin13.4°13.3°0%70%WSW 6.5 KM/H
23:00Senin12.8°12.7°0%69%WSW 6.1 KM/H




tutorials